DLH2458 EDDM-ENTC
Flight info
| Callsign | DLH2458 |
|---|---|
| Flight time | N/A |
| Altitude | 35000 |
| Route | AKINI1E AKINI Y104 MAMOR L132 AGNAV DCT SUPIL DCT KILNU/N0441F360 DCT MILGU/N0446F370 DCT OKAGA/N0450F380 DCT GILEN DCT BARVI |
| Aircraft | A20N/M-SDE2E3FGHIRWXY/LB1 |
Departure
| Time | 2026-05-08 08:22 |
|---|---|
| Airport | Munich Airport (EDDM) |
Arrival
| Time | N/A |
|---|---|
| Airport | Tromsø Airport (ENTC) |
| Time | Latitude | Longitude | Altitude | Speed | Heading |
|---|---|---|---|---|---|
| 2026-05-08 08:08 | 48.35110 | 11.79345 | 1467 ft | 0 kts | 263° |
| 2026-05-08 08:13 | 48.35110 | 11.79346 | 1467 ft | 0 kts | 263° |
| 2026-05-08 08:14 | 48.35112 | 11.79373 | 1465 ft | 10 kts | 263° |
| 2026-05-08 08:14 | 48.35120 | 11.79470 | 1458 ft | 6 kts | 255° |
| 2026-05-08 08:14 | 48.35153 | 11.79510 | 1458 ft | 6 kts | 172° |
| 2026-05-08 08:14 | 48.35157 | 11.79509 | 1456 ft | 0 kts | 168° |
| 2026-05-08 08:15 | 48.35156 | 11.79509 | 1459 ft | 1 kts | 168° |
| 2026-05-08 08:16 | 48.35092 | 11.79525 | 1458 ft | 19 kts | 173° |
| 2026-05-08 08:16 | 48.34914 | 11.79559 | 1463 ft | 31 kts | 173° |
| 2026-05-08 08:16 | 48.34777 | 11.79506 | 1458 ft | 15 kts | 259° |
| 2026-05-08 08:16 | 48.34771 | 11.79325 | 1460 ft | 21 kts | 263° |
| 2026-05-08 08:17 | 48.34751 | 11.79071 | 1462 ft | 27 kts | 263° |
| 2026-05-08 08:17 | 48.34727 | 11.78769 | 1462 ft | 30 kts | 264° |
| 2026-05-08 08:17 | 48.34704 | 11.78453 | 1464 ft | 30 kts | 262° |
| 2026-05-08 08:17 | 48.34675 | 11.78140 | 1466 ft | 30 kts | 263° |
| 2026-05-08 08:18 | 48.34656 | 11.77833 | 1466 ft | 30 kts | 264° |
| 2026-05-08 08:18 | 48.34633 | 11.77524 | 1463 ft | 29 kts | 263° |
| 2026-05-08 08:18 | 48.34609 | 11.77226 | 1464 ft | 29 kts | 265° |
| 2026-05-08 08:18 | 48.34588 | 11.76928 | 1466 ft | 29 kts | 264° |
| 2026-05-08 08:19 | 48.34563 | 11.76639 | 1463 ft | 28 kts | 263° |
| 2026-05-08 08:19 | 48.34539 | 11.76341 | 1464 ft | 28 kts | 263° |
| 2026-05-08 08:19 | 48.34516 | 11.76050 | 1466 ft | 28 kts | 263° |
| 2026-05-08 08:19 | 48.34492 | 11.75761 | 1462 ft | 28 kts | 262° |
| 2026-05-08 08:20 | 48.34470 | 11.75473 | 1466 ft | 28 kts | 270° |
| 2026-05-08 08:20 | 48.34455 | 11.75186 | 1466 ft | 27 kts | 262° |
| 2026-05-08 08:20 | 48.34330 | 11.75067 | 1462 ft | 25 kts | 172° |
| 2026-05-08 08:20 | 48.34160 | 11.75103 | 1464 ft | 24 kts | 163° |
| 2026-05-08 08:21 | 48.34078 | 11.75275 | 1473 ft | 21 kts | 86° |
| 2026-05-08 08:21 | 48.34101 | 11.75521 | 1472 ft | 41 kts | 84° |
| 2026-05-08 08:21 | 48.34158 | 11.76299 | 1468 ft | 106 kts | 83° |
| 2026-05-08 08:21 | 48.34264 | 11.77671 | 1459 ft | 155 kts | 83° |
| 2026-05-08 08:22 | 48.34402 | 11.79471 | 1477 ft | 193 kts | 83° |
| 2026-05-08 08:22 | 48.34580 | 11.81595 | 1715 ft | 215 kts | 81° |
| 2026-05-08 08:22 | 48.34828 | 11.83897 | 2230 ft | 224 kts | 81° |
| 2026-05-08 08:22 | 48.35043 | 11.86132 | 3271 ft | 212 kts | 82° |
| 2026-05-08 08:23 | 48.35223 | 11.88406 | 3764 ft | 229 kts | 84° |
| 2026-05-08 08:23 | 48.35385 | 11.90905 | 4164 ft | 250 kts | 85° |
| 2026-05-08 08:23 | 48.35538 | 11.93573 | 4827 ft | 260 kts | 85° |
| 2026-05-08 08:23 | 48.35703 | 11.96291 | 5714 ft | 262 kts | 81° |
| 2026-05-08 08:24 | 48.36260 | 11.98902 | 6539 ft | 265 kts | 61° |
| 2026-05-08 08:24 | 48.37358 | 12.01125 | 7351 ft | 268 kts | 43° |
| 2026-05-08 08:24 | 48.38882 | 12.02775 | 8153 ft | 271 kts | 26° |
| 2026-05-08 08:24 | 48.40671 | 12.03678 | 8915 ft | 274 kts | 8° |
| 2026-05-08 08:25 | 48.42585 | 12.03803 | 9642 ft | 280 kts | 359° |
| 2026-05-08 08:25 | 48.44558 | 12.03767 | 10203 ft | 290 kts | 359° |
| 2026-05-08 08:25 | 48.46593 | 12.03754 | 10968 ft | 294 kts | 359° |
| 2026-05-08 08:25 | 48.48648 | 12.03751 | 11710 ft | 297 kts | 359° |
| 2026-05-08 08:26 | 48.50726 | 12.03754 | 12438 ft | 300 kts | 359° |
| 2026-05-08 08:26 | 48.52825 | 12.03759 | 13134 ft | 303 kts | 359° |
| 2026-05-08 08:26 | 48.54905 | 12.03764 | 13785 ft | 307 kts | 360° |
| 2026-05-08 08:26 | 48.57030 | 12.03770 | 14455 ft | 310 kts | 360° |
| 2026-05-08 08:27 | 48.59098 | 12.03776 | 15080 ft | 313 kts | 360° |
| 2026-05-08 08:27 | 48.61300 | 12.03886 | 15714 ft | 316 kts | 7° |
| 2026-05-08 08:27 | 48.63458 | 12.04601 | 16324 ft | 320 kts | 18° |
| 2026-05-08 08:27 | 48.65519 | 12.05922 | 16921 ft | 323 kts | 25° |
| 2026-05-08 08:28 | 48.67573 | 12.07354 | 17517 ft | 326 kts | 24° |
| 2026-05-08 08:28 | 48.69647 | 12.08774 | 18087 ft | 329 kts | 24° |
| 2026-05-08 08:28 | 48.71719 | 12.10189 | 18638 ft | 332 kts | 24° |
| 2026-05-08 08:28 | 48.73835 | 12.11633 | 19191 ft | 334 kts | 24° |
| 2026-05-08 08:29 | 48.75964 | 12.13094 | 19672 ft | 340 kts | 24° |
| 2026-05-08 08:29 | 48.78154 | 12.14650 | 19823 ft | 355 kts | 25° |
| 2026-05-08 08:29 | 48.80435 | 12.16305 | 19969 ft | 370 kts | 25° |
| 2026-05-08 08:29 | 48.82806 | 12.18028 | 20100 ft | 385 kts | 25° |
| 2026-05-08 08:30 | 48.85257 | 12.19805 | 20415 ft | 393 kts | 25° |
| 2026-05-08 08:30 | 48.87739 | 12.21601 | 20935 ft | 396 kts | 25° |
| 2026-05-08 08:30 | 48.92739 | 12.25164 | 21917 ft | 401 kts | 24° |
| 2026-05-08 08:31 | 48.95285 | 12.26947 | 22388 ft | 404 kts | 24° |
| 2026-05-08 08:31 | 48.97852 | 12.28747 | 22848 ft | 407 kts | 24° |
| 2026-05-08 08:31 | 49.00438 | 12.30565 | 23298 ft | 410 kts | 24° |
| 2026-05-08 08:31 | 49.03038 | 12.32398 | 23739 ft | 413 kts | 25° |
| 2026-05-08 08:32 | 49.05658 | 12.34248 | 24118 ft | 417 kts | 25° |
| 2026-05-08 08:32 | 49.08299 | 12.36118 | 24546 ft | 419 kts | 25° |
| 2026-05-08 08:32 | 49.10940 | 12.37991 | 24965 ft | 421 kts | 25° |
| 2026-05-08 08:32 | 49.13618 | 12.39891 | 25337 ft | 425 kts | 25° |
| 2026-05-08 08:33 | 49.15397 | 12.41155 | 25609 ft | 426 kts | 25° |
| 2026-05-08 08:33 | 49.18972 | 12.43698 | 26133 ft | 429 kts | 25° |
| 2026-05-08 08:33 | 49.21683 | 12.45627 | 26484 ft | 431 kts | 25° |
| 2026-05-08 08:33 | 49.24409 | 12.47571 | 26843 ft | 433 kts | 25° |
| 2026-05-08 08:34 | 49.26226 | 12.48868 | 27052 ft | 435 kts | 25° |
| 2026-05-08 08:34 | 49.28974 | 12.50831 | 27391 ft | 437 kts | 25° |
| 2026-05-08 08:34 | 49.31744 | 12.52788 | 27686 ft | 440 kts | 22° |
| 2026-05-08 08:34 | 49.34639 | 12.54353 | 28004 ft | 441 kts | 15° |
| 2026-05-08 08:35 | 49.37639 | 12.55396 | 28304 ft | 443 kts | 11° |
| 2026-05-08 08:35 | 49.40674 | 12.56331 | 28575 ft | 446 kts | 11° |
| 2026-05-08 08:35 | 49.43720 | 12.57296 | 28844 ft | 448 kts | 11° |
| 2026-05-08 08:35 | 49.46777 | 12.58270 | 29122 ft | 450 kts | 11° |
| 2026-05-08 08:36 | 49.49855 | 12.59249 | 29377 ft | 452 kts | 11° |
| 2026-05-08 08:36 | 49.52951 | 12.60230 | 29592 ft | 455 kts | 11° |
| 2026-05-08 08:36 | 49.56052 | 12.61212 | 29857 ft | 456 kts | 11° |
| 2026-05-08 08:36 | 49.59137 | 12.62140 | 30150 ft | 457 kts | 9° |
| 2026-05-08 08:37 | 49.62320 | 12.62922 | 30423 ft | 458 kts | 8° |
| 2026-05-08 08:37 | 49.65488 | 12.63645 | 30647 ft | 461 kts | 8° |
| 2026-05-08 08:37 | 49.68626 | 12.64368 | 30886 ft | 463 kts | 8° |
| 2026-05-08 08:37 | 49.71811 | 12.65121 | 31147 ft | 464 kts | 8° |
| 2026-05-08 08:38 | 49.74972 | 12.65883 | 31472 ft | 463 kts | 8° |
| 2026-05-08 08:38 | 49.78179 | 12.66665 | 31813 ft | 462 kts | 8° |
| 2026-05-08 08:38 | 49.81245 | 12.67417 | 32124 ft | 461 kts | 8° |
| 2026-05-08 08:38 | 49.84413 | 12.68195 | 32414 ft | 461 kts | 8° |
| 2026-05-08 08:39 | 49.87579 | 12.68975 | 32707 ft | 460 kts | 8° |
| 2026-05-08 08:39 | 49.90746 | 12.69755 | 32984 ft | 460 kts | 9° |
| 2026-05-08 08:39 | 49.93908 | 12.70535 | 33242 ft | 459 kts | 9° |
| 2026-05-08 08:39 | 49.97064 | 12.71314 | 33504 ft | 459 kts | 9° |
| 2026-05-08 08:40 | 50.00188 | 12.72087 | 33699 ft | 460 kts | 9° |
| 2026-05-08 08:40 | 50.03357 | 12.72871 | 33929 ft | 460 kts | 9° |
| 2026-05-08 08:40 | 50.06519 | 12.73655 | 34114 ft | 459 kts | 9° |
| 2026-05-08 08:40 | 50.09671 | 12.74437 | 34239 ft | 458 kts | 9° |
| 2026-05-08 08:41 | 50.12815 | 12.75219 | 34363 ft | 457 kts | 9° |
| 2026-05-08 08:41 | 50.15956 | 12.76001 | 34488 ft | 456 kts | 9° |
| 2026-05-08 08:41 | 50.19091 | 12.76783 | 34613 ft | 455 kts | 9° |
| 2026-05-08 08:41 | 50.22125 | 12.77540 | 34737 ft | 454 kts | 9° |
| 2026-05-08 08:42 | 50.25297 | 12.78332 | 34859 ft | 454 kts | 9° |
| 2026-05-08 08:42 | 50.28421 | 12.79114 | 34978 ft | 454 kts | 9° |
| 2026-05-08 08:42 | 50.34647 | 12.80924 | 34998 ft | 457 kts | 15° |
| 2026-05-08 08:43 | 50.40574 | 12.84567 | 35001 ft | 458 kts | 28° |
| 2026-05-08 08:43 | 50.46194 | 12.89246 | 35002 ft | 457 kts | 20° |
| 2026-05-08 08:44 | 50.52341 | 12.91619 | 35005 ft | 455 kts | 5° |
| 2026-05-08 08:44 | 50.58625 | 12.92288 | 35000 ft | 455 kts | 4° |
| 2026-05-08 08:45 | 50.64952 | 12.92981 | 35012 ft | 455 kts | 4° |
| 2026-05-08 08:45 | 50.71282 | 12.93664 | 35007 ft | 456 kts | 4° |
| 2026-05-08 08:46 | 50.77612 | 12.94339 | 35021 ft | 456 kts | 4° |
| 2026-05-08 08:46 | 50.83953 | 12.95015 | 35025 ft | 456 kts | 4° |
| 2026-05-08 08:47 | 50.90241 | 12.95688 | 35026 ft | 456 kts | 4° |
| 2026-05-08 08:47 | 50.96573 | 12.96368 | 35025 ft | 455 kts | 4° |
| 2026-05-08 08:48 | 51.02893 | 12.97048 | 35023 ft | 455 kts | 4° |
| 2026-05-08 08:48 | 51.09219 | 12.97731 | 35018 ft | 454 kts | 4° |
| 2026-05-08 08:49 | 51.15474 | 12.98408 | 35015 ft | 454 kts | 4° |
| 2026-05-08 08:49 | 51.21798 | 12.99094 | 35011 ft | 453 kts | 4° |
| 2026-05-08 08:50 | 51.28089 | 12.99779 | 35009 ft | 452 kts | 4° |
| 2026-05-08 08:50 | 51.34365 | 13.00464 | 34999 ft | 452 kts | 4° |
| 2026-05-08 08:51 | 51.40636 | 13.01150 | 34996 ft | 451 kts | 4° |
| 2026-05-08 08:51 | 51.46859 | 13.01833 | 34988 ft | 450 kts | 4° |
| 2026-05-08 08:52 | 51.53105 | 13.02520 | 34994 ft | 450 kts | 4° |
| 2026-05-08 08:52 | 51.59340 | 13.03408 | 34987 ft | 450 kts | 7° |
| 2026-05-08 08:53 | 51.65545 | 13.04686 | 34987 ft | 450 kts | 7° |
| 2026-05-08 08:53 | 51.71759 | 13.05940 | 34986 ft | 450 kts | 7° |
| 2026-05-08 08:54 | 51.77964 | 13.07203 | 34994 ft | 450 kts | 7° |
| 2026-05-08 08:54 | 51.84185 | 13.08478 | 34990 ft | 450 kts | 7° |
| 2026-05-08 08:55 | 51.90367 | 13.09749 | 34995 ft | 451 kts | 7° |
| 2026-05-08 08:55 | 51.96593 | 13.11033 | 34996 ft | 451 kts | 7° |
| 2026-05-08 08:56 | 52.02827 | 13.12322 | 35005 ft | 451 kts | 7° |
| 2026-05-08 08:56 | 52.09067 | 13.13616 | 35003 ft | 452 kts | 7° |
| 2026-05-08 08:57 | 52.15306 | 13.14913 | 35007 ft | 452 kts | 7° |
| 2026-05-08 08:57 | 52.21548 | 13.16215 | 35007 ft | 452 kts | 7° |
| 2026-05-08 08:58 | 52.27785 | 13.17519 | 35009 ft | 452 kts | 7° |
| 2026-05-08 08:58 | 52.33977 | 13.18817 | 34990 ft | 452 kts | 7° |
| 2026-05-08 08:59 | 52.37096 | 13.19473 | 34763 ft | 452 kts | 7° |
| 2026-05-08 08:59 | 52.40207 | 13.20128 | 34662 ft | 450 kts | 7° |
| 2026-05-08 08:59 | 52.46441 | 13.21443 | 34807 ft | 452 kts | 7° |
| 2026-05-08 09:00 | 52.49561 | 13.22102 | 34941 ft | 452 kts | 7° |
| 2026-05-08 09:00 | 52.52679 | 13.22762 | 34999 ft | 452 kts | 7° |
| 2026-05-08 09:00 | 52.58907 | 13.24083 | 34997 ft | 451 kts | 7° |
| 2026-05-08 09:01 | 52.65135 | 13.25408 | 35008 ft | 451 kts | 7° |
| 2026-05-08 09:01 | 52.71328 | 13.26729 | 34997 ft | 451 kts | 7° |
| 2026-05-08 09:02 | 52.77552 | 13.28061 | 34998 ft | 451 kts | 7° |
| 2026-05-08 09:02 | 52.83778 | 13.29397 | 35000 ft | 451 kts | 7° |
| 2026-05-08 09:03 | 52.90005 | 13.30737 | 35002 ft | 451 kts | 7° |
| 2026-05-08 09:03 | 52.96229 | 13.32080 | 35006 ft | 451 kts | 7° |
| 2026-05-08 09:04 | 53.02424 | 13.33422 | 35008 ft | 451 kts | 7° |
| 2026-05-08 09:04 | 53.08652 | 13.34773 | 35002 ft | 451 kts | 7° |
| 2026-05-08 09:05 | 53.14872 | 13.36127 | 35001 ft | 451 kts | 7° |
| 2026-05-08 09:05 | 53.21096 | 13.37486 | 34998 ft | 451 kts | 7° |
| 2026-05-08 09:06 | 53.27320 | 13.38848 | 34997 ft | 451 kts | 7° |
| 2026-05-08 09:06 | 53.33541 | 13.40215 | 34999 ft | 451 kts | 7° |
| 2026-05-08 09:07 | 53.39777 | 13.41589 | 34994 ft | 451 kts | 7° |
| 2026-05-08 09:07 | 53.45958 | 13.42955 | 34996 ft | 451 kts | 7° |
| 2026-05-08 09:08 | 53.52193 | 13.44336 | 35001 ft | 451 kts | 7° |
| 2026-05-08 09:08 | 53.58420 | 13.45720 | 35009 ft | 451 kts | 7° |
| 2026-05-08 09:09 | 53.64660 | 13.47111 | 35012 ft | 451 kts | 7° |
| 2026-05-08 09:09 | 53.70891 | 13.48504 | 35004 ft | 452 kts | 7° |
| 2026-05-08 09:10 | 53.77100 | 13.49896 | 35008 ft | 452 kts | 7° |
| 2026-05-08 09:10 | 53.83326 | 13.51297 | 35007 ft | 452 kts | 7° |
| 2026-05-08 09:11 | 53.89559 | 13.52703 | 35013 ft | 452 kts | 7° |
| 2026-05-08 09:11 | 53.95802 | 13.54115 | 35003 ft | 451 kts | 7° |
| 2026-05-08 09:12 | 54.01991 | 13.55519 | 35005 ft | 451 kts | 7° |
| 2026-05-08 09:12 | 54.08217 | 13.56936 | 35004 ft | 451 kts | 7° |
| 2026-05-08 09:13 | 54.14445 | 13.58359 | 34998 ft | 451 kts | 7° |
| 2026-05-08 09:13 | 54.20664 | 13.59783 | 34997 ft | 451 kts | 7° |
| 2026-05-08 09:14 | 54.26882 | 13.61212 | 35001 ft | 450 kts | 7° |
| 2026-05-08 09:14 | 54.33055 | 13.62634 | 35000 ft | 450 kts | 7° |
| 2026-05-08 09:15 | 54.39271 | 13.64070 | 34998 ft | 450 kts | 7° |
| 2026-05-08 09:15 | 54.45480 | 13.65509 | 35000 ft | 450 kts | 7° |
| 2026-05-08 09:16 | 54.51686 | 13.66953 | 34992 ft | 450 kts | 7° |
| 2026-05-08 09:16 | 54.57905 | 13.68403 | 34992 ft | 450 kts | 7° |
| 2026-05-08 09:17 | 54.64074 | 13.69846 | 34993 ft | 450 kts | 7° |
| 2026-05-08 09:17 | 54.70287 | 13.71305 | 35003 ft | 450 kts | 7° |
| 2026-05-08 09:18 | 54.76502 | 13.72767 | 34996 ft | 450 kts | 7° |
| 2026-05-08 09:18 | 54.82121 | 13.74094 | 35002 ft | 451 kts | 7° |
| 2026-05-08 09:19 | 54.88334 | 13.75563 | 35002 ft | 451 kts | 7° |
| 2026-05-08 09:19 | 54.94576 | 13.76969 | 35004 ft | 451 kts | 5° |
| 2026-05-08 09:20 | 55.00787 | 13.77963 | 34999 ft | 451 kts | 5° |
| 2026-05-08 09:20 | 55.07038 | 13.78955 | 35001 ft | 451 kts | 5° |
| 2026-05-08 09:21 | 55.13292 | 13.79994 | 35004 ft | 451 kts | 5° |
| 2026-05-08 09:23 | 55.35157 | 13.83695 | 35008 ft | 451 kts | 5° |
| 2026-05-08 09:23 | 55.40350 | 13.84579 | 35011 ft | 451 kts | 5° |
| 2026-05-08 09:24 | 55.47616 | 13.85821 | 34998 ft | 451 kts | 5° |
| 2026-05-08 09:24 | 55.53869 | 13.86893 | 35007 ft | 451 kts | 5° |
| 2026-05-08 09:25 | 55.59063 | 13.87786 | 35001 ft | 451 kts | 5° |
| 2026-05-08 09:25 | 55.65312 | 13.88864 | 34998 ft | 451 kts | 5° |
| 2026-05-08 09:26 | 55.71568 | 13.89948 | 34997 ft | 451 kts | 5° |
| 2026-05-08 09:26 | 55.77781 | 13.91029 | 34992 ft | 451 kts | 5° |
| 2026-05-08 09:27 | 55.84032 | 13.92119 | 34990 ft | 451 kts | 5° |
| 2026-05-08 09:27 | 55.90295 | 13.93215 | 34995 ft | 451 kts | 5° |
| 2026-05-08 09:28 | 55.96545 | 13.94312 | 34999 ft | 451 kts | 5° |
| 2026-05-08 09:28 | 56.02757 | 13.95406 | 35008 ft | 451 kts | 5° |
| 2026-05-08 09:29 | 56.09019 | 13.96514 | 35011 ft | 452 kts | 5° |
| 2026-05-08 09:29 | 56.15287 | 13.97625 | 35009 ft | 452 kts | 5° |
| 2026-05-08 09:30 | 56.21550 | 13.98740 | 35003 ft | 452 kts | 5° |
| 2026-05-08 09:30 | 56.27778 | 13.99851 | 35003 ft | 452 kts | 5° |
| 2026-05-08 09:31 | 56.34037 | 14.00971 | 35002 ft | 452 kts | 5° |
| 2026-05-08 09:31 | 56.40292 | 14.02093 | 35004 ft | 452 kts | 5° |
| 2026-05-08 09:32 | 56.46558 | 14.03223 | 35000 ft | 451 kts | 5° |
| 2026-05-08 09:32 | 56.52811 | 14.04354 | 34998 ft | 451 kts | 5° |
| 2026-05-08 09:33 | 56.59014 | 14.05479 | 34998 ft | 451 kts | 5° |
| 2026-05-08 09:33 | 56.65263 | 14.06616 | 34993 ft | 451 kts | 5° |
| 2026-05-08 09:34 | 56.71434 | 14.07742 | 34994 ft | 451 kts | 5° |
| 2026-05-08 09:34 | 56.77684 | 14.08888 | 34996 ft | 451 kts | 5° |
| 2026-05-08 09:35 | 56.83894 | 14.10029 | 35002 ft | 451 kts | 5° |
| 2026-05-08 09:35 | 56.90150 | 14.11183 | 34963 ft | 452 kts | 5° |
| 2026-05-08 09:36 | 56.96407 | 14.12342 | 34994 ft | 453 kts | 5° |
| 2026-05-08 09:36 | 57.02666 | 14.13504 | 35001 ft | 451 kts | 5° |
| 2026-05-08 09:37 | 57.08914 | 14.14668 | 34997 ft | 452 kts | 5° |
| 2026-05-08 09:37 | 57.15179 | 14.15839 | 35004 ft | 452 kts | 5° |
| 2026-05-08 09:38 | 57.21398 | 14.17006 | 34997 ft | 452 kts | 5° |
| 2026-05-08 09:38 | 57.27660 | 14.18185 | 35000 ft | 452 kts | 5° |
| 2026-05-08 09:39 | 57.33919 | 14.19366 | 34996 ft | 452 kts | 5° |
| 2026-05-08 09:39 | 57.40178 | 14.20553 | 35002 ft | 452 kts | 5° |
| 2026-05-08 09:40 | 57.46435 | 14.21744 | 34999 ft | 452 kts | 5° |
| 2026-05-08 09:40 | 57.52657 | 14.22930 | 34997 ft | 452 kts | 5° |
| 2026-05-08 09:41 | 57.58923 | 14.24130 | 35001 ft | 452 kts | 6° |
| 2026-05-08 09:41 | 57.65196 | 14.25336 | 35001 ft | 452 kts | 6° |
| 2026-05-08 09:42 | 57.71464 | 14.26544 | 35003 ft | 452 kts | 6° |
| 2026-05-08 09:42 | 57.77692 | 14.27749 | 35001 ft | 452 kts | 6° |
| 2026-05-08 09:43 | 57.83963 | 14.28967 | 35006 ft | 453 kts | 6° |
| 2026-05-08 09:43 | 57.90230 | 14.30188 | 35006 ft | 453 kts | 6° |
| 2026-05-08 09:44 | 57.96496 | 14.31413 | 35013 ft | 452 kts | 6° |
| 2026-05-08 09:44 | 58.02766 | 14.32643 | 35008 ft | 452 kts | 6° |
| 2026-05-08 09:45 | 58.08992 | 14.33869 | 35015 ft | 452 kts | 6° |
| 2026-05-08 09:45 | 58.15255 | 14.35107 | 35003 ft | 452 kts | 6° |
| 2026-05-08 09:46 | 58.21508 | 14.36347 | 35001 ft | 452 kts | 6° |
| 2026-05-08 09:46 | 58.27766 | 14.37592 | 34998 ft | 451 kts | 6° |
| 2026-05-08 09:47 | 58.34010 | 14.38839 | 34996 ft | 451 kts | 6° |
| 2026-05-08 09:47 | 58.40209 | 14.40082 | 34994 ft | 451 kts | 6° |
| 2026-05-08 09:48 | 58.46450 | 14.41338 | 35002 ft | 451 kts | 6° |
| 2026-05-08 09:48 | 58.52692 | 14.42597 | 34992 ft | 451 kts | 6° |
| 2026-05-08 09:49 | 58.58934 | 14.43861 | 34993 ft | 451 kts | 6° |
| 2026-05-08 09:49 | 58.65185 | 14.45133 | 34990 ft | 451 kts | 6° |
| 2026-05-08 09:50 | 58.71424 | 14.46406 | 35003 ft | 451 kts | 6° |
| 2026-05-08 09:50 | 58.77629 | 14.47676 | 34996 ft | 451 kts | 6° |
| 2026-05-08 09:51 | 58.83874 | 14.48959 | 35005 ft | 451 kts | 6° |
| 2026-05-08 09:51 | 58.90121 | 14.50248 | 34994 ft | 451 kts | 6° |
| 2026-05-08 09:52 | 58.96373 | 14.51542 | 34995 ft | 451 kts | 6° |
| 2026-05-08 09:52 | 59.02625 | 14.52840 | 34997 ft | 452 kts | 6° |
| 2026-05-08 09:53 | 59.08841 | 14.54136 | 35008 ft | 452 kts | 6° |
| 2026-05-08 09:53 | 59.15104 | 14.55449 | 35001 ft | 452 kts | 6° |
| 2026-05-08 09:54 | 59.21370 | 14.56765 | 35005 ft | 452 kts | 6° |
| 2026-05-08 09:54 | 59.27588 | 14.58076 | 35003 ft | 452 kts | 6° |
| 2026-05-08 09:55 | 59.33848 | 14.59399 | 35008 ft | 452 kts | 6° |
| 2026-05-08 09:55 | 59.40113 | 14.60730 | 35005 ft | 452 kts | 6° |
| 2026-05-08 09:56 | 59.46382 | 14.62067 | 34999 ft | 452 kts | 6° |
| 2026-05-08 09:56 | 59.52644 | 14.63407 | 34997 ft | 452 kts | 6° |
| 2026-05-08 09:57 | 59.61999 | 14.65420 | 34997 ft | 452 kts | 6° |
| 2026-05-08 09:57 | 59.68218 | 14.66763 | 35000 ft | 452 kts | 6° |
| 2026-05-08 09:58 | 59.74465 | 14.68116 | 35000 ft | 452 kts | 6° |
| 2026-05-08 09:58 | 59.80716 | 14.69476 | 34996 ft | 452 kts | 6° |
| 2026-05-08 09:59 | 59.86970 | 14.70842 | 35001 ft | 452 kts | 6° |
| 2026-05-08 09:59 | 59.93215 | 14.72212 | 35001 ft | 452 kts | 6° |
| 2026-05-08 10:00 | 59.99471 | 14.73589 | 35004 ft | 452 kts | 6° |
| 2026-05-08 10:00 | 60.05727 | 14.74971 | 35002 ft | 452 kts | 6° |
| 2026-05-08 10:01 | 60.11947 | 14.76351 | 34989 ft | 452 kts | 6° |
| 2026-05-08 10:01 | 60.18212 | 14.77746 | 34998 ft | 452 kts | 6° |
| 2026-05-08 10:02 | 60.24476 | 14.79145 | 35004 ft | 452 kts | 6° |
| 2026-05-08 10:02 | 60.30696 | 14.80541 | 35002 ft | 453 kts | 6° |
| 2026-05-08 10:03 | 60.36967 | 14.81953 | 35002 ft | 453 kts | 6° |
| 2026-05-08 10:03 | 60.43239 | 14.83371 | 35003 ft | 453 kts | 6° |
| 2026-05-08 10:04 | 60.49509 | 14.84795 | 35006 ft | 453 kts | 6° |
| 2026-05-08 10:04 | 60.55774 | 14.86222 | 35006 ft | 453 kts | 6° |
| 2026-05-08 10:05 | 60.62044 | 14.87656 | 35004 ft | 453 kts | 6° |
| 2026-05-08 10:05 | 60.68274 | 14.89087 | 35003 ft | 453 kts | 6° |
| 2026-05-08 10:06 | 60.74551 | 14.90534 | 35000 ft | 453 kts | 6° |
| 2026-05-08 10:06 | 60.80814 | 14.91983 | 35008 ft | 453 kts | 6° |
| 2026-05-08 10:07 | 60.87043 | 14.93431 | 35012 ft | 452 kts | 6° |
| 2026-05-08 10:07 | 60.93308 | 14.94892 | 35001 ft | 452 kts | 6° |
| 2026-05-08 10:08 | 60.99568 | 14.96358 | 34994 ft | 452 kts | 6° |
| 2026-05-08 10:08 | 61.05820 | 14.97828 | 34992 ft | 452 kts | 6° |
| 2026-05-08 10:09 | 61.12040 | 14.99296 | 34988 ft | 452 kts | 6° |
| 2026-05-08 10:09 | 61.18298 | 15.00779 | 34992 ft | 452 kts | 6° |
| 2026-05-08 10:10 | 61.24543 | 15.02265 | 34993 ft | 452 kts | 6° |
| 2026-05-08 10:10 | 61.30797 | 15.03760 | 34992 ft | 452 kts | 6° |
| 2026-05-08 10:11 | 61.37044 | 15.05258 | 34993 ft | 452 kts | 6° |
| 2026-05-08 10:11 | 61.43259 | 15.06754 | 34994 ft | 452 kts | 6° |
| 2026-05-08 10:12 | 61.49507 | 15.08265 | 34993 ft | 452 kts | 6° |
| 2026-05-08 10:12 | 61.55763 | 15.09785 | 35003 ft | 452 kts | 6° |
| 2026-05-08 10:13 | 61.62019 | 15.11310 | 34995 ft | 453 kts | 6° |
| 2026-05-08 10:13 | 61.68285 | 15.12843 | 35001 ft | 453 kts | 6° |
| 2026-05-08 10:14 | 61.74515 | 15.14374 | 34995 ft | 453 kts | 6° |
| 2026-05-08 10:14 | 61.80783 | 15.15921 | 34997 ft | 453 kts | 6° |
| 2026-05-08 10:15 | 61.87049 | 15.17473 | 35003 ft | 453 kts | 6° |
| 2026-05-08 10:15 | 61.92253 | 15.18768 | 34995 ft | 453 kts | 6° |